sensor_id;sensor_type;location;lat;lon;timestamp;P1;durP1;ratioP1;P2;durP2;ratioP2
51312;SDS011;37397;53.226;10.400;2023-06-10T00:02:19;9.57;;;4.28;;
51312;SDS011;37397;53.226;10.400;2023-06-10T00:04:45;6.72;;;3.60;;
51312;SDS011;37397;53.226;10.400;2023-06-10T00:07:12;10.75;;;4.18;;
51312;SDS011;37397;53.226;10.400;2023-06-10T00:09:39;9.27;;;4.13;;
51312;SDS011;37397;53.226;10.400;2023-06-10T00:12:06;10.38;;;4.38;;
51312;SDS011;37397;53.226;10.400;2023-06-10T00:14:34;9.15;;;3.95;;
51312;SDS011;37397;53.226;10.400;2023-06-10T00:17:05;10.20;;;4.40;;
51312;SDS011;37397;53.226;10.400;2023-06-10T00:19:36;12.15;;;4.70;;
51312;SDS011;37397;53.226;10.400;2023-06-10T00:22:05;9.85;;;4.40;;
51312;SDS011;37397;53.226;10.400;2023-06-10T00:24:31;8.45;;;3.92;;
51312;SDS011;37397;53.226;10.400;2023-06-10T00:26:58;9.38;;;4.25;;
51312;SDS011;37397;53.226;10.400;2023-06-10T00:29:24;8.60;;;4.35;;
51312;SDS011;37397;53.226;10.400;2023-06-10T00:31:51;10.63;;;4.40;;
51312;SDS011;37397;53.226;10.400;2023-06-10T00:34:20;11.57;;;4.20;;
51312;SDS011;37397;53.226;10.400;2023-06-10T00:36:47;12.05;;;4.28;;
51312;SDS011;37397;53.226;10.400;2023-06-10T00:39:13;10.88;;;4.78;;
51312;SDS011;37397;53.226;10.400;2023-06-10T00:41:40;11.02;;;4.45;;
51312;SDS011;37397;53.226;10.400;2023-06-10T00:44:06;12.98;;;4.88;;
51312;SDS011;37397;53.226;10.400;2023-06-10T00:46:33;9.40;;;4.30;;
51312;SDS011;37397;53.226;10.400;2023-06-10T00:49:00;8.30;;;4.03;;
51312;SDS011;37397;53.226;10.400;2023-06-10T00:51:27;11.93;;;4.13;;
51312;SDS011;37397;53.226;10.400;2023-06-10T00:53:54;11.90;;;4.82;;
51312;SDS011;37397;53.226;10.400;2023-06-10T00:56:21;9.38;;;4.35;;
51312;SDS011;37397;53.226;10.400;2023-06-10T00:58:48;9.73;;;4.22;;
51312;SDS011;37397;53.226;10.400;2023-06-10T01:01:15;10.00;;;4.13;;
51312;SDS011;37397;53.226;10.400;2023-06-10T01:03:41;8.43;;;3.72;;
51312;SDS011;37397;53.226;10.400;2023-06-10T01:12:17;10.27;;;4.57;;
51312;SDS011;37397;53.226;10.400;2023-06-10T01:14:53;11.50;;;4.13;;
51312;SDS011;37397;53.226;10.400;2023-06-10T01:17:22;11.27;;;4.22;;
51312;SDS011;37397;53.226;10.400;2023-06-10T01:19:59;9.20;;;4.03;;
51312;SDS011;37397;53.226;10.400;2023-06-10T01:22:28;13.52;;;4.20;;
51312;SDS011;37397;53.226;10.400;2023-06-10T01:24:55;9.95;;;3.70;;
51312;SDS011;37397;53.226;10.400;2023-06-10T01:27:29;10.05;;;4.40;;
51312;SDS011;37397;53.226;10.400;2023-06-10T01:29:59;9.30;;;4.30;;
51312;SDS011;37397;53.226;10.400;2023-06-10T01:32:33;12.00;;;4.22;;
51312;SDS011;37397;53.226;10.400;2023-06-10T01:35:04;9.85;;;3.92;;
51312;SDS011;37397;53.226;10.400;2023-06-10T01:37:36;12.13;;;4.28;;
51312;SDS011;37397;53.226;10.400;2023-06-10T01:40:07;11.00;;;4.20;;
51312;SDS011;37397;53.226;10.400;2023-06-10T01:42:34;8.63;;;4.10;;
51312;SDS011;37397;53.226;10.400;2023-06-10T01:45:02;8.35;;;3.70;;
51312;SDS011;37397;53.226;10.400;2023-06-10T01:47:28;9.18;;;3.92;;
51312;SDS011;37397;53.226;10.400;2023-06-10T01:49:55;8.52;;;3.75;;
51312;SDS011;37397;53.226;10.400;2023-06-10T01:52:22;10.25;;;4.20;;
51312;SDS011;37397;53.226;10.400;2023-06-10T01:54:48;12.70;;;4.38;;
51312;SDS011;37397;53.226;10.400;2023-06-10T01:57:15;12.88;;;4.18;;
51312;SDS011;37397;53.226;10.400;2023-06-10T01:59:42;11.73;;;4.07;;
51312;SDS011;37397;53.226;10.400;2023-06-10T02:02:10;10.05;;;4.20;;
51312;SDS011;37397;53.226;10.400;2023-06-10T02:04:37;10.48;;;4.07;;
51312;SDS011;37397;53.226;10.400;2023-06-10T02:07:04;13.18;;;4.18;;
51312;SDS011;37397;53.226;10.400;2023-06-10T02:09:31;9.65;;;3.70;;
51312;SDS011;37397;53.226;10.400;2023-06-10T02:12:04;12.02;;;4.07;;
51312;SDS011;37397;53.226;10.400;2023-06-10T02:14:33;9.45;;;3.85;;
51312;SDS011;37397;53.226;10.400;2023-06-10T02:16:59;10.70;;;3.70;;
51312;SDS011;37397;53.226;10.400;2023-06-10T02:19:27;8.68;;;3.90;;
51312;SDS011;37397;53.226;10.400;2023-06-10T02:21:54;9.60;;;3.95;;
51312;SDS011;37397;53.226;10.400;2023-06-10T02:24:21;12.43;;;4.68;;
51312;SDS011;37397;53.226;10.400;2023-06-10T02:26:47;9.25;;;3.88;;
51312;SDS011;37397;53.226;10.400;2023-06-10T02:29:14;8.38;;;3.60;;
51312;SDS011;37397;53.226;10.400;2023-06-10T02:31:41;8.93;;;3.85;;
51312;SDS011;37397;53.226;10.400;2023-06-10T02:34:08;11.43;;;3.78;;
51312;SDS011;37397;53.226;10.400;2023-06-10T02:36:34;13.85;;;4.10;;
51312;SDS011;37397;53.226;10.400;2023-06-10T02:39:02;11.27;;;3.97;;
51312;SDS011;37397;53.226;10.400;2023-06-10T02:41:31;11.18;;;3.97;;
51312;SDS011;37397;53.226;10.400;2023-06-10T02:43:58;9.00;;;3.95;;
51312;SDS011;37397;53.226;10.400;2023-06-10T02:46:25;9.70;;;4.20;;
51312;SDS011;37397;53.226;10.400;2023-06-10T02:48:53;9.82;;;3.90;;
51312;SDS011;37397;53.226;10.400;2023-06-10T02:51:22;10.70;;;4.13;;
51312;SDS011;37397;53.226;10.400;2023-06-10T02:53:55;9.20;;;3.60;;
51312;SDS011;37397;53.226;10.400;2023-06-10T02:56:22;10.05;;;3.75;;
51312;SDS011;37397;53.226;10.400;2023-06-10T02:58:49;12.32;;;4.30;;
51312;SDS011;37397;53.226;10.400;2023-06-10T03:01:18;7.45;;;3.72;;
51312;SDS011;37397;53.226;10.400;2023-06-10T03:03:56;8.32;;;3.40;;
51312;SDS011;37397;53.226;10.400;2023-06-10T03:06:23;10.52;;;3.88;;
51312;SDS011;37397;53.226;10.400;2023-06-10T03:08:52;9.82;;;3.80;;
51312;SDS011;37397;53.226;10.400;2023-06-10T03:11:19;10.18;;;3.70;;
51312;SDS011;37397;53.226;10.400;2023-06-10T03:13:48;7.40;;;3.22;;
51312;SDS011;37397;53.226;10.400;2023-06-10T03:16:16;12.45;;;3.92;;
51312;SDS011;37397;53.226;10.400;2023-06-10T03:18:44;11.10;;;3.92;;
51312;SDS011;37397;53.226;10.400;2023-06-10T03:21:11;8.73;;;3.42;;
51312;SDS011;37397;53.226;10.400;2023-06-10T03:23:38;6.85;;;3.22;;
51312;SDS011;37397;53.226;10.400;2023-06-10T03:26:05;8.15;;;3.50;;
51312;SDS011;37397;53.226;10.400;2023-06-10T03:28:33;9.95;;;3.60;;
51312;SDS011;37397;53.226;10.400;2023-06-10T03:31:00;9.85;;;3.63;;
51312;SDS011;37397;53.226;10.400;2023-06-10T03:33:30;10.73;;;3.45;;
51312;SDS011;37397;53.226;10.400;2023-06-10T03:35:57;8.10;;;3.45;;
51312;SDS011;37397;53.226;10.400;2023-06-10T03:38:24;9.27;;;3.83;;
51312;SDS011;37397;53.226;10.400;2023-06-10T03:40:52;10.18;;;3.70;;
51312;SDS011;37397;53.226;10.400;2023-06-10T03:43:19;10.15;;;3.72;;
51312;SDS011;37397;53.226;10.400;2023-06-10T03:45:46;11.27;;;3.90;;
51312;SDS011;37397;53.226;10.400;2023-06-10T03:48:15;9.27;;;3.70;;
51312;SDS011;37397;53.226;10.400;2023-06-10T03:50:46;10.05;;;3.70;;
51312;SDS011;37397;53.226;10.400;2023-06-10T03:53:14;9.07;;;3.80;;
51312;SDS011;37397;53.226;10.400;2023-06-10T03:55:42;11.02;;;3.50;;
51312;SDS011;37397;53.226;10.400;2023-06-10T03:58:09;11.45;;;3.90;;
51312;SDS011;37397;53.226;10.400;2023-06-10T04:00:35;10.10;;;3.90;;
51312;SDS011;37397;53.226;10.400;2023-06-10T04:03:08;11.35;;;4.50;;
51312;SDS011;37397;53.226;10.400;2023-06-10T04:05:48;13.27;;;3.92;;
51312;SDS011;37397;53.226;10.400;2023-06-10T04:08:16;9.25;;;3.67;;
51312;SDS011;37397;53.226;10.400;2023-06-10T04:10:43;9.52;;;3.47;;
51312;SDS011;37397;53.226;10.400;2023-06-10T04:13:10;7.97;;;3.58;;
51312;SDS011;37397;53.226;10.400;2023-06-10T04:18:14;9.00;;;3.53;;
51312;SDS011;37397;53.226;10.400;2023-06-10T04:20:42;12.18;;;3.58;;
51312;SDS011;37397;53.226;10.400;2023-06-10T04:23:10;10.50;;;3.55;;
51312;SDS011;37397;53.226;10.400;2023-06-10T04:25:39;10.90;;;3.30;;
51312;SDS011;37397;53.226;10.400;2023-06-10T04:28:06;10.52;;;3.55;;
51312;SDS011;37397;53.226;10.400;2023-06-10T04:30:35;8.20;;;3.13;;
51312;SDS011;37397;53.226;10.400;2023-06-10T04:33:02;8.52;;;3.42;;
51312;SDS011;37397;53.226;10.400;2023-06-10T04:35:29;12.25;;;3.85;;
51312;SDS011;37397;53.226;10.400;2023-06-10T04:38:00;9.70;;;3.45;;
51312;SDS011;37397;53.226;10.400;2023-06-10T04:40:29;11.82;;;3.85;;
51312;SDS011;37397;53.226;10.400;2023-06-10T04:42:56;10.77;;;3.80;;
51312;SDS011;37397;53.226;10.400;2023-06-10T04:45:23;11.23;;;3.67;;
51312;SDS011;37397;53.226;10.400;2023-06-10T04:47:49;10.52;;;3.67;;
51312;SDS011;37397;53.226;10.400;2023-06-10T04:50:16;11.38;;;3.38;;
51312;SDS011;37397;53.226;10.400;2023-06-10T04:52:42;12.50;;;4.20;;
51312;SDS011;37397;53.226;10.400;2023-06-10T04:55:11;11.02;;;3.97;;
51312;SDS011;37397;53.226;10.400;2023-06-10T04:57:38;10.20;;;3.38;;
51312;SDS011;37397;53.226;10.400;2023-06-10T05:00:04;10.60;;;3.92;;
51312;SDS011;37397;53.226;10.400;2023-06-10T05:02:32;12.98;;;3.70;;
51312;SDS011;37397;53.226;10.400;2023-06-10T05:04:59;8.48;;;3.45;;
51312;SDS011;37397;53.226;10.400;2023-06-10T05:07:26;10.32;;;3.97;;
51312;SDS011;37397;53.226;10.400;2023-06-10T05:09:52;10.18;;;3.50;;
51312;SDS011;37397;53.226;10.400;2023-06-10T05:12:18;10.07;;;4.00;;
51312;SDS011;37397;53.226;10.400;2023-06-10T05:14:45;9.02;;;3.72;;
51312;SDS011;37397;53.226;10.400;2023-06-10T05:17:12;10.70;;;3.63;;
51312;SDS011;37397;53.226;10.400;2023-06-10T05:19:39;14.15;;;3.85;;
51312;SDS011;37397;53.226;10.400;2023-06-10T05:22:05;11.15;;;3.80;;
51312;SDS011;37397;53.226;10.400;2023-06-10T05:24:32;11.27;;;3.50;;
51312;SDS011;37397;53.226;10.400;2023-06-10T05:26:58;10.77;;;3.45;;
51312;SDS011;37397;53.226;10.400;2023-06-10T05:29:25;9.00;;;3.78;;
51312;SDS011;37397;53.226;10.400;2023-06-10T05:31:52;13.68;;;3.95;;
51312;SDS011;37397;53.226;10.400;2023-06-10T05:34:19;10.95;;;3.70;;
51312;SDS011;37397;53.226;10.400;2023-06-10T05:36:45;12.63;;;4.07;;
51312;SDS011;37397;53.226;10.400;2023-06-10T05:39:12;11.18;;;3.92;;
51312;SDS011;37397;53.226;10.400;2023-06-10T05:41:38;11.15;;;4.03;;
51312;SDS011;37397;53.226;10.400;2023-06-10T05:44:05;10.50;;;3.75;;
51312;SDS011;37397;53.226;10.400;2023-06-10T05:46:32;10.05;;;4.32;;
51312;SDS011;37397;53.226;10.400;2023-06-10T05:48:58;10.77;;;3.50;;
51312;SDS011;37397;53.226;10.400;2023-06-10T05:51:25;9.93;;;3.58;;
51312;SDS011;37397;53.226;10.400;2023-06-10T05:53:52;9.30;;;3.78;;
51312;SDS011;37397;53.226;10.400;2023-06-10T05:56:18;10.38;;;3.63;;
51312;SDS011;37397;53.226;10.400;2023-06-10T05:58:45;13.52;;;4.50;;
51312;SDS011;37397;53.226;10.400;2023-06-10T06:01:11;10.43;;;3.90;;
51312;SDS011;37397;53.226;10.400;2023-06-10T06:03:38;11.90;;;4.13;;
51312;SDS011;37397;53.226;10.400;2023-06-10T06:06:05;11.77;;;4.03;;
51312;SDS011;37397;53.226;10.400;2023-06-10T06:08:31;7.97;;;3.05;;
51312;SDS011;37397;53.226;10.400;2023-06-10T06:10:58;9.18;;;3.70;;
51312;SDS011;37397;53.226;10.400;2023-06-10T06:13:24;9.45;;;3.25;;
51312;SDS011;37397;53.226;10.400;2023-06-10T06:15:51;10.45;;;3.42;;
51312;SDS011;37397;53.226;10.400;2023-06-10T06:18:17;9.55;;;3.53;;
51312;SDS011;37397;53.226;10.400;2023-06-10T06:20:45;8.95;;;3.92;;
51312;SDS011;37397;53.226;10.400;2023-06-10T06:23:11;8.60;;;3.40;;
51312;SDS011;37397;53.226;10.400;2023-06-10T06:25:38;6.97;;;3.10;;
51312;SDS011;37397;53.226;10.400;2023-06-10T06:28:06;11.23;;;3.92;;
51312;SDS011;37397;53.226;10.400;2023-06-10T06:30:33;8.98;;;3.10;;
51312;SDS011;37397;53.226;10.400;2023-06-10T06:32:59;11.18;;;3.83;;
51312;SDS011;37397;53.226;10.400;2023-06-10T06:35:26;11.35;;;3.30;;
51312;SDS011;37397;53.226;10.400;2023-06-10T06:37:52;11.02;;;3.97;;
51312;SDS011;37397;53.226;10.400;2023-06-10T06:40:24;13.30;;;3.40;;
51312;SDS011;37397;53.226;10.400;2023-06-10T06:42:51;10.45;;;3.35;;
51312;SDS011;37397;53.226;10.400;2023-06-10T06:45:35;10.43;;;3.28;;
51312;SDS011;37397;53.226;10.400;2023-06-10T06:48:02;9.57;;;3.50;;
51312;SDS011;37397;53.226;10.400;2023-06-10T06:50:29;9.63;;;3.30;;
51312;SDS011;37397;53.226;10.400;2023-06-10T06:52:55;13.50;;;3.67;;
51312;SDS011;37397;53.226;10.400;2023-06-10T06:55:22;9.55;;;3.10;;
51312;SDS011;37397;53.226;10.400;2023-06-10T06:57:48;9.27;;;3.38;;
51312;SDS011;37397;53.226;10.400;2023-06-10T07:00:15;10.38;;;3.58;;
51312;SDS011;37397;53.226;10.400;2023-06-10T07:02:42;10.82;;;3.60;;
51312;SDS011;37397;53.226;10.400;2023-06-10T07:05:08;9.38;;;3.42;;
51312;SDS011;37397;53.226;10.400;2023-06-10T07:07:35;10.43;;;3.55;;
51312;SDS011;37397;53.226;10.400;2023-06-10T07:10:02;9.55;;;3.25;;
51312;SDS011;37397;53.226;10.400;2023-06-10T07:12:28;8.00;;;2.88;;
51312;SDS011;37397;53.226;10.400;2023-06-10T07:14:57;9.43;;;3.42;;
51312;SDS011;37397;53.226;10.400;2023-06-10T07:17:23;10.32;;;3.20;;
51312;SDS011;37397;53.226;10.400;2023-06-10T07:19:50;9.63;;;3.55;;
51312;SDS011;37397;53.226;10.400;2023-06-10T07:22:17;12.23;;;3.30;;
51312;SDS011;37397;53.226;10.400;2023-06-10T07:24:44;11.55;;;3.75;;
51312;SDS011;37397;53.226;10.400;2023-06-10T07:27:10;9.55;;;3.60;;
51312;SDS011;37397;53.226;10.400;2023-06-10T07:29:37;11.40;;;3.67;;
51312;SDS011;37397;53.226;10.400;2023-06-10T07:32:03;6.55;;;2.90;;
51312;SDS011;37397;53.226;10.400;2023-06-10T07:34:30;10.35;;;3.13;;
51312;SDS011;37397;53.226;10.400;2023-06-10T07:36:56;7.63;;;3.17;;
51312;SDS011;37397;53.226;10.400;2023-06-10T07:39:23;11.65;;;4.18;;
51312;SDS011;37397;53.226;10.400;2023-06-10T07:41:49;7.95;;;3.20;;
51312;SDS011;37397;53.226;10.400;2023-06-10T07:44:18;9.82;;;3.42;;
51312;SDS011;37397;53.226;10.400;2023-06-10T07:46:45;12.95;;;3.47;;
51312;SDS011;37397;53.226;10.400;2023-06-10T07:49:11;10.90;;;3.60;;
51312;SDS011;37397;53.226;10.400;2023-06-10T07:51:37;7.80;;;3.13;;
51312;SDS011;37397;53.226;10.400;2023-06-10T07:54:04;10.60;;;3.67;;
51312;SDS011;37397;53.226;10.400;2023-06-10T07:56:31;7.57;;;3.25;;
51312;SDS011;37397;53.226;10.400;2023-06-10T07:58:58;8.73;;;3.58;;
51312;SDS011;37397;53.226;10.400;2023-06-10T08:01:24;14.05;;;3.63;;
51312;SDS011;37397;53.226;10.400;2023-06-10T08:03:51;11.23;;;3.97;;
51312;SDS011;37397;53.226;10.400;2023-06-10T08:06:17;11.95;;;3.25;;
51312;SDS011;37397;53.226;10.400;2023-06-10T08:08:44;9.18;;;3.15;;
51312;SDS011;37397;53.226;10.400;2023-06-10T08:11:13;10.63;;;3.25;;
51312;SDS011;37397;53.226;10.400;2023-06-10T08:13:40;9.75;;;3.80;;
51312;SDS011;37397;53.226;10.400;2023-06-10T08:16:06;10.63;;;3.63;;
51312;SDS011;37397;53.226;10.400;2023-06-10T08:18:33;9.65;;;3.60;;
51312;SDS011;37397;53.226;10.400;2023-06-10T08:21:00;10.60;;;3.35;;
51312;SDS011;37397;53.226;10.400;2023-06-10T08:23:26;13.90;;;3.92;;
51312;SDS011;37397;53.226;10.400;2023-06-10T08:25:53;8.95;;;3.40;;
51312;SDS011;37397;53.226;10.400;2023-06-10T08:28:19;11.23;;;3.65;;
51312;SDS011;37397;53.226;10.400;2023-06-10T08:30:46;11.10;;;3.50;;
51312;SDS011;37397;53.226;10.400;2023-06-10T08:33:13;9.95;;;3.63;;
51312;SDS011;37397;53.226;10.400;2023-06-10T08:35:39;10.40;;;4.20;;
51312;SDS011;37397;53.226;10.400;2023-06-10T08:38:06;13.65;;;4.70;;
51312;SDS011;37397;53.226;10.400;2023-06-10T08:40:33;7.32;;;3.70;;
51312;SDS011;37397;53.226;10.400;2023-06-10T08:45:36;10.57;;;4.15;;
51312;SDS011;37397;53.226;10.400;2023-06-10T08:48:03;8.90;;;3.90;;
51312;SDS011;37397;53.226;10.400;2023-06-10T08:50:37;11.38;;;4.10;;
51312;SDS011;37397;53.226;10.400;2023-06-10T08:53:04;7.65;;;3.70;;
51312;SDS011;37397;53.226;10.400;2023-06-10T08:55:33;12.35;;;4.35;;
51312;SDS011;37397;53.226;10.400;2023-06-10T08:58:02;9.50;;;3.75;;
51312;SDS011;37397;53.226;10.400;2023-06-10T09:00:30;11.55;;;4.10;;
51312;SDS011;37397;53.226;10.400;2023-06-10T09:02:58;11.82;;;4.80;;
51312;SDS011;37397;53.226;10.400;2023-06-10T09:05:30;12.35;;;3.70;;
51312;SDS011;37397;53.226;10.400;2023-06-10T09:07:59;8.35;;;3.67;;
51312;SDS011;37397;53.226;10.400;2023-06-10T09:10:27;13.43;;;4.43;;
51312;SDS011;37397;53.226;10.400;2023-06-10T09:12:54;9.95;;;3.90;;
51312;SDS011;37397;53.226;10.400;2023-06-10T09:15:20;10.40;;;4.35;;
51312;SDS011;37397;53.226;10.400;2023-06-10T09:17:47;10.02;;;4.32;;
51312;SDS011;37397;53.226;10.400;2023-06-10T09:20:14;11.55;;;4.07;;
51312;SDS011;37397;53.226;10.400;2023-06-10T09:22:41;10.82;;;4.38;;
51312;SDS011;37397;53.226;10.400;2023-06-10T09:25:09;10.63;;;4.50;;
51312;SDS011;37397;53.226;10.400;2023-06-10T09:27:48;10.40;;;4.53;;
51312;SDS011;37397;53.226;10.400;2023-06-10T09:30:23;10.35;;;4.38;;
51312;SDS011;37397;53.226;10.400;2023-06-10T09:32:54;9.48;;;4.18;;
51312;SDS011;37397;53.226;10.400;2023-06-10T09:35:23;9.07;;;4.32;;
51312;SDS011;37397;53.226;10.400;2023-06-10T09:37:54;10.80;;;4.25;;
51312;SDS011;37397;53.226;10.400;2023-06-10T09:40:22;9.88;;;4.55;;
51312;SDS011;37397;53.226;10.400;2023-06-10T09:42:52;10.32;;;4.50;;
51312;SDS011;37397;53.226;10.400;2023-06-10T09:45:21;13.13;;;5.13;;
51312;SDS011;37397;53.226;10.400;2023-06-10T09:47:55;8.85;;;4.57;;
51312;SDS011;37397;53.226;10.400;2023-06-10T09:50:22;9.40;;;4.60;;
51312;SDS011;37397;53.226;10.400;2023-06-10T09:52:49;9.75;;;4.55;;
51312;SDS011;37397;53.226;10.400;2023-06-10T09:55:16;9.98;;;4.32;;
51312;SDS011;37397;53.226;10.400;2023-06-10T09:57:44;10.27;;;4.45;;
51312;SDS011;37397;53.226;10.400;2023-06-10T10:00:14;9.48;;;4.40;;
51312;SDS011;37397;53.226;10.400;2023-06-10T10:02:45;11.55;;;5.00;;
51312;SDS011;37397;53.226;10.400;2023-06-10T10:05:17;10.40;;;4.60;;
51312;SDS011;37397;53.226;10.400;2023-06-10T10:07:45;10.82;;;4.40;;
51312;SDS011;37397;53.226;10.400;2023-06-10T10:10:13;11.55;;;4.53;;
51312;SDS011;37397;53.226;10.400;2023-06-10T10:12:41;10.35;;;4.72;;
51312;SDS011;37397;53.226;10.400;2023-06-10T10:15:09;10.48;;;4.90;;
51312;SDS011;37397;53.226;10.400;2023-06-10T10:17:41;10.70;;;4.40;;
51312;SDS011;37397;53.226;10.400;2023-06-10T10:20:13;11.00;;;4.68;;
51312;SDS011;37397;53.226;10.400;2023-06-10T10:22:43;11.18;;;5.10;;
51312;SDS011;37397;53.226;10.400;2023-06-10T10:25:17;12.63;;;5.10;;
51312;SDS011;37397;53.226;10.400;2023-06-10T10:28:00;15.70;;;5.10;;
51312;SDS011;37397;53.226;10.400;2023-06-10T10:30:34;11.30;;;5.30;;
51312;SDS011;37397;53.226;10.400;2023-06-10T10:33:09;12.32;;;5.15;;
51312;SDS011;37397;53.226;10.400;2023-06-10T10:36:02;12.25;;;4.82;;
51312;SDS011;37397;53.226;10.400;2023-06-10T10:38:29;10.90;;;5.45;;
51312;SDS011;37397;53.226;10.400;2023-06-10T10:40:58;12.80;;;5.20;;
51312;SDS011;37397;53.226;10.400;2023-06-10T10:43:26;10.25;;;4.70;;
51312;SDS011;37397;53.226;10.400;2023-06-10T10:46:00;12.20;;;5.35;;
51312;SDS011;37397;53.226;10.400;2023-06-10T10:48:33;13.88;;;5.47;;
51312;SDS011;37397;53.226;10.400;2023-06-10T10:51:03;10.32;;;4.75;;
51312;SDS011;37397;53.226;10.400;2023-06-10T10:53:29;8.45;;;4.72;;
51312;SDS011;37397;53.226;10.400;2023-06-10T10:58:32;10.82;;;4.80;;
51312;SDS011;37397;53.226;10.400;2023-06-10T11:00:59;14.20;;;5.35;;
51312;SDS011;37397;53.226;10.400;2023-06-10T11:03:29;9.65;;;4.80;;
51312;SDS011;37397;53.226;10.400;2023-06-10T11:05:59;10.85;;;5.30;;
51312;SDS011;37397;53.226;10.400;2023-06-10T11:10:59;10.40;;;5.22;;
51312;SDS011;37397;53.226;10.400;2023-06-10T11:13:26;10.52;;;5.30;;
51312;SDS011;37397;53.226;10.400;2023-06-10T11:15:56;9.18;;;5.55;;
51312;SDS011;37397;53.226;10.400;2023-06-10T11:18:27;11.98;;;5.45;;
51312;SDS011;37397;53.226;10.400;2023-06-10T11:21:01;10.52;;;5.70;;
51312;SDS011;37397;53.226;10.400;2023-06-10T11:26:09;11.80;;;5.60;;
51312;SDS011;37397;53.226;10.400;2023-06-10T11:28:37;12.77;;;6.03;;
51312;SDS011;37397;53.226;10.400;2023-06-10T11:31:05;12.52;;;6.03;;
51312;SDS011;37397;53.226;10.400;2023-06-10T11:33:31;12.60;;;5.90;;
51312;SDS011;37397;53.226;10.400;2023-06-10T11:35:59;9.50;;;5.45;;
51312;SDS011;37397;53.226;10.400;2023-06-10T11:38:25;10.95;;;5.35;;
51312;SDS011;37397;53.226;10.400;2023-06-10T11:40:52;11.27;;;5.90;;
51312;SDS011;37397;53.226;10.400;2023-06-10T11:43:19;12.10;;;5.70;;
51312;SDS011;37397;53.226;10.400;2023-06-10T11:45:46;9.77;;;5.05;;
51312;SDS011;37397;53.226;10.400;2023-06-10T11:48:12;9.70;;;5.93;;
51312;SDS011;37397;53.226;10.400;2023-06-10T11:50:39;15.23;;;5.45;;
51312;SDS011;37397;53.226;10.400;2023-06-10T11:53:08;12.73;;;5.78;;
51312;SDS011;37397;53.226;10.400;2023-06-10T11:55:45;10.13;;;5.55;;
51312;SDS011;37397;53.226;10.400;2023-06-10T11:58:20;11.32;;;5.15;;
51312;SDS011;37397;53.226;10.400;2023-06-10T12:00:51;10.57;;;5.68;;
51312;SDS011;37397;53.226;10.400;2023-06-10T12:03:24;12.38;;;5.80;;
51312;SDS011;37397;53.226;10.400;2023-06-10T12:05:56;9.90;;;5.90;;
51312;SDS011;37397;53.226;10.400;2023-06-10T12:08:27;10.85;;;5.88;;
51312;SDS011;37397;53.226;10.400;2023-06-10T12:10:53;10.20;;;5.68;;
51312;SDS011;37397;53.226;10.400;2023-06-10T12:13:21;10.57;;;5.22;;
51312;SDS011;37397;53.226;10.400;2023-06-10T12:15:50;12.25;;;5.70;;
51312;SDS011;37397;53.226;10.400;2023-06-10T12:18:17;11.23;;;5.55;;
51312;SDS011;37397;53.226;10.400;2023-06-10T12:20:44;10.27;;;5.88;;
51312;SDS011;37397;53.226;10.400;2023-06-10T12:23:11;8.48;;;5.55;;
51312;SDS011;37397;53.226;10.400;2023-06-10T12:25:38;11.10;;;5.43;;
51312;SDS011;37397;53.226;10.400;2023-06-10T12:28:06;12.45;;;5.90;;
51312;SDS011;37397;53.226;10.400;2023-06-10T12:30:36;8.88;;;5.82;;
51312;SDS011;37397;53.226;10.400;2023-06-10T12:33:03;10.93;;;5.82;;
51312;SDS011;37397;53.226;10.400;2023-06-10T12:35:29;9.88;;;5.63;;
51312;SDS011;37397;53.226;10.400;2023-06-10T12:37:56;15.10;;;5.85;;
51312;SDS011;37397;53.226;10.400;2023-06-10T12:40:30;10.13;;;5.32;;
51312;SDS011;37397;53.226;10.400;2023-06-10T12:42:58;14.57;;;5.82;;
51312;SDS011;37397;53.226;10.400;2023-06-10T12:45:26;10.15;;;5.28;;
51312;SDS011;37397;53.226;10.400;2023-06-10T12:48:08;9.13;;;5.72;;
51312;SDS011;37397;53.226;10.400;2023-06-10T12:50:40;12.82;;;5.60;;
51312;SDS011;37397;53.226;10.400;2023-06-10T12:53:08;8.52;;;5.32;;
51312;SDS011;37397;53.226;10.400;2023-06-10T12:55:37;9.77;;;5.75;;
51312;SDS011;37397;53.226;10.400;2023-06-10T12:58:04;10.18;;;5.65;;
51312;SDS011;37397;53.226;10.400;2023-06-10T13:00:31;11.48;;;5.47;;
51312;SDS011;37397;53.226;10.400;2023-06-10T13:02:59;10.57;;;5.65;;
51312;SDS011;37397;53.226;10.400;2023-06-10T13:05:32;11.07;;;5.40;;
51312;SDS011;37397;53.226;10.400;2023-06-10T13:08:00;10.20;;;5.53;;
51312;SDS011;37397;53.226;10.400;2023-06-10T13:10:27;10.30;;;5.85;;
51312;SDS011;37397;53.226;10.400;2023-06-10T13:12:53;11.60;;;5.28;;
51312;SDS011;37397;53.226;10.400;2023-06-10T13:15:23;10.25;;;5.43;;
51312;SDS011;37397;53.226;10.400;2023-06-10T13:17:49;10.40;;;5.38;;
51312;SDS011;37397;53.226;10.400;2023-06-10T13:20:17;8.68;;;5.53;;
51312;SDS011;37397;53.226;10.400;2023-06-10T13:22:45;9.05;;;5.13;;
51312;SDS011;37397;53.226;10.400;2023-06-10T13:25:11;9.85;;;5.90;;
51312;SDS011;37397;53.226;10.400;2023-06-10T13:27:39;12.13;;;6.10;;
51312;SDS011;37397;53.226;10.400;2023-06-10T13:30:06;10.43;;;5.70;;
51312;SDS011;37397;53.226;10.400;2023-06-10T13:32:34;9.15;;;5.18;;
51312;SDS011;37397;53.226;10.400;2023-06-10T13:35:01;10.02;;;6.05;;
51312;SDS011;37397;53.226;10.400;2023-06-10T13:37:30;9.52;;;5.47;;
51312;SDS011;37397;53.226;10.400;2023-06-10T13:39:57;9.95;;;5.43;;
51312;SDS011;37397;53.226;10.400;2023-06-10T13:42:23;12.15;;;5.97;;
51312;SDS011;37397;53.226;10.400;2023-06-10T13:44:52;12.32;;;6.00;;
51312;SDS011;37397;53.226;10.400;2023-06-10T13:47:19;9.32;;;5.28;;
51312;SDS011;37397;53.226;10.400;2023-06-10T13:49:45;10.30;;;5.22;;
51312;SDS011;37397;53.226;10.400;2023-06-10T13:52:12;10.30;;;5.18;;
51312;SDS011;37397;53.226;10.400;2023-06-10T13:54:39;9.63;;;5.60;;
51312;SDS011;37397;53.226;10.400;2023-06-10T13:57:05;10.13;;;5.95;;
51312;SDS011;37397;53.226;10.400;2023-06-10T13:59:32;10.40;;;5.47;;
51312;SDS011;37397;53.226;10.400;2023-06-10T14:01:59;10.70;;;5.57;;
51312;SDS011;37397;53.226;10.400;2023-06-10T14:04:26;9.55;;;5.35;;
51312;SDS011;37397;53.226;10.400;2023-06-10T14:06:53;8.95;;;5.63;;
51312;SDS011;37397;53.226;10.400;2023-06-10T14:09:19;9.00;;;5.57;;
51312;SDS011;37397;53.226;10.400;2023-06-10T14:11:46;11.65;;;5.88;;
51312;SDS011;37397;53.226;10.400;2023-06-10T14:14:13;11.60;;;5.70;;
51312;SDS011;37397;53.226;10.400;2023-06-10T14:16:41;9.45;;;5.78;;
51312;SDS011;37397;53.226;10.400;2023-06-10T14:19:09;9.52;;;5.72;;
51312;SDS011;37397;53.226;10.400;2023-06-10T14:21:35;8.25;;;5.88;;
51312;SDS011;37397;53.226;10.400;2023-06-10T14:24:02;8.10;;;5.43;;
51312;SDS011;37397;53.226;10.400;2023-06-10T14:26:28;10.40;;;5.75;;
51312;SDS011;37397;53.226;10.400;2023-06-10T14:28:55;10.35;;;5.50;;
51312;SDS011;37397;53.226;10.400;2023-06-10T14:31:21;8.02;;;5.13;;
51312;SDS011;37397;53.226;10.400;2023-06-10T14:33:48;10.70;;;5.88;;
51312;SDS011;37397;53.226;10.400;2023-06-10T14:36:14;9.13;;;5.70;;
51312;SDS011;37397;53.226;10.400;2023-06-10T14:38:41;8.30;;;5.70;;
51312;SDS011;37397;53.226;10.400;2023-06-10T14:41:07;10.30;;;5.82;;
51312;SDS011;37397;53.226;10.400;2023-06-10T14:43:34;10.02;;;5.53;;
51312;SDS011;37397;53.226;10.400;2023-06-10T14:46:00;9.43;;;5.70;;
51312;SDS011;37397;53.226;10.400;2023-06-10T14:48:27;9.80;;;5.30;;
51312;SDS011;37397;53.226;10.400;2023-06-10T14:50:53;8.13;;;5.35;;